createdAt,value
2022-08-12T00:01:03.275Z,100303.41
2022-08-12T00:03:50.296Z,100298.81
2022-08-12T00:06:38.427Z,100300.09
2022-08-12T00:09:26.387Z,100300.09
2022-08-12T00:12:14.787Z,100292.69
2022-08-12T00:15:03.096Z,100293.00
2022-08-12T00:17:49.010Z,100296.16
2022-08-12T00:20:36.991Z,100292.13
2022-08-12T00:23:22.752Z,100302.69
2022-08-12T00:26:22.583Z,100298.28
2022-08-12T00:29:10.736Z,100297.59
2022-08-12T00:32:01.399Z,100291.25
2022-08-12T00:34:49.353Z,100298.16
2022-08-12T00:37:35.750Z,100297.78
2022-08-12T00:40:21.991Z,100303.84
2022-08-12T00:42:49.314Z,100296.78
2022-08-12T00:45:17.402Z,100293.00
2022-08-12T00:47:47.551Z,100295.44
2022-08-12T00:50:19.494Z,100295.50
2022-08-12T00:52:49.483Z,100299.94
2022-08-12T00:55:18.802Z,100306.50
2022-08-12T00:57:49.278Z,100290.13
2022-08-12T01:00:23.875Z,100293.44
2022-08-12T01:02:58.119Z,100297.88
2022-08-12T01:05:50.173Z,100303.47
2022-08-12T01:08:35.907Z,100293.09
2022-08-12T01:11:35.826Z,100303.16
2022-08-12T01:14:04.405Z,100295.88
2022-08-12T01:16:32.993Z,100299.53
2022-08-12T01:19:03.253Z,100300.00
2022-08-12T01:21:57.913Z,100298.38
2022-08-12T01:24:57.528Z,100301.31
2022-08-12T01:27:27.238Z,100303.94
2022-08-12T01:29:58.266Z,100310.03
2022-08-12T01:32:30.088Z,100306.41
2022-08-12T01:35:07.065Z,100313.66
2022-08-12T01:37:49.899Z,100311.34
2022-08-12T01:40:33.262Z,100307.53
2022-08-12T01:43:08.253Z,100307.03
2022-08-12T01:45:43.307Z,100315.25
2022-08-12T01:48:24.396Z,100312.78
2022-08-12T01:51:06.444Z,100304.28
2022-08-12T01:53:48.595Z,100302.50
2022-08-12T01:56:26.194Z,100308.22
2022-08-12T01:59:21.222Z,100309.63
2022-08-12T02:01:54.271Z,100312.56
2022-08-12T02:04:53.945Z,100301.88
2022-08-12T02:07:58.351Z,100311.06
2022-08-12T02:10:56.649Z,100303.31
2022-08-12T02:13:49.682Z,100308.88
2022-08-12T02:16:31.809Z,100305.28
2022-08-12T02:19:22.504Z,100303.09
2022-08-12T02:22:01.040Z,100307.66
2022-08-12T02:24:35.297Z,100311.47
2022-08-12T02:27:04.577Z,100301.00
2022-08-12T02:29:34.553Z,100307.28
2022-08-12T02:32:04.682Z,100300.56
2022-08-12T02:34:34.503Z,100298.09
2022-08-12T02:37:04.020Z,100303.56
2022-08-12T02:39:34.697Z,100302.91
2022-08-12T02:42:06.892Z,100291.91
2022-08-12T02:44:43.447Z,100299.50
2022-08-12T02:47:55.716Z,100298.69
2022-08-12T02:50:04.816Z,100304.78
2022-08-12T02:52:34.887Z,100297.56
2022-08-12T02:55:12.897Z,100303.50
2022-08-12T02:57:57.111Z,100298.97
2022-08-12T03:00:28.710Z,100289.34
2022-08-12T03:03:00.936Z,100299.34
2022-08-12T03:05:30.080Z,100293.03
2022-08-12T03:08:30.544Z,100300.25
2022-08-12T03:11:04.738Z,100298.22
2022-08-12T03:13:40.327Z,100297.91
2022-08-12T03:16:10.946Z,100300.19
2022-08-12T03:18:45.790Z,100307.38
2022-08-12T03:21:55.386Z,100300.31
2022-08-12T03:24:09.365Z,100303.66
2022-08-12T03:26:38.825Z,100310.00
2022-08-12T03:29:08.299Z,100311.00
2022-08-12T03:31:37.944Z,100306.97
2022-08-12T03:34:08.656Z,100309.59
2022-08-12T03:36:38.420Z,100317.25
2022-08-12T03:39:36.865Z,100307.84
2022-08-12T03:42:17.672Z,100307.31
2022-08-12T03:45:15.358Z,100314.69
2022-08-12T03:48:18.555Z,100320.78
2022-08-12T03:51:05.686Z,100320.91
2022-08-12T03:53:51.030Z,100324.66
2022-08-12T03:56:36.810Z,100313.31
2022-08-12T03:59:25.502Z,100319.66
2022-08-12T04:01:57.798Z,100324.25
2022-08-12T04:04:34.050Z,100322.88
2022-08-12T04:07:03.466Z,100330.38
2022-08-12T04:09:32.316Z,100325.88
2022-08-12T04:12:17.971Z,100327.00
2022-08-12T04:14:46.990Z,100321.19
2022-08-12T04:17:16.760Z,100329.66
2022-08-12T04:19:48.383Z,100334.34
2022-08-12T04:22:16.428Z,100336.69
2022-08-12T04:24:50.711Z,100340.69
2022-08-12T04:27:19.232Z,100340.06
2022-08-12T04:30:29.015Z,100344.59
2022-08-12T04:32:42.220Z,100344.41
2022-08-12T04:35:15.173Z,100350.50
2022-08-12T04:37:58.451Z,100345.41
2022-08-12T04:40:30.882Z,100345.13
2022-08-12T04:43:01.576Z,100343.69
2022-08-12T04:45:31.210Z,100346.25
2022-08-12T04:47:59.247Z,100349.81
2022-08-12T04:50:35.081Z,100346.66
2022-08-12T04:53:06.675Z,100348.06
2022-08-12T04:55:38.452Z,100337.59
2022-08-12T04:58:06.706Z,100347.53
2022-08-12T05:00:35.472Z,100340.56
2022-08-12T05:03:03.718Z,100342.25
2022-08-12T05:05:36.126Z,100347.00
2022-08-12T05:08:07.924Z,100353.56
2022-08-12T05:10:36.394Z,100351.28
2022-08-12T05:13:08.387Z,100356.16
2022-08-12T05:16:04.739Z,100349.41
2022-08-12T05:18:29.331Z,100358.69
2022-08-12T05:21:00.333Z,100365.16
2022-08-12T05:23:29.112Z,100366.78
2022-08-12T05:25:57.964Z,100363.03
2022-08-12T05:28:28.087Z,100358.47
2022-08-12T05:30:57.175Z,100365.75
2022-08-12T05:33:37.587Z,100376.31
2022-08-12T05:36:09.230Z,100379.31
2022-08-12T05:38:55.804Z,100376.97
2022-08-12T05:41:25.708Z,100376.97
2022-08-12T05:43:55.831Z,100387.72
2022-08-12T05:46:25.483Z,100378.97
2022-08-12T05:48:55.501Z,100382.13
2022-08-12T05:51:39.520Z,100381.84
2022-08-12T05:54:10.596Z,100392.31
2022-08-12T05:56:40.194Z,100400.19
2022-08-12T05:59:11.518Z,100392.69
2022-08-12T06:02:08.853Z,100382.84
2022-08-12T06:04:29.025Z,100388.50
2022-08-12T06:06:58.288Z,100390.53
2022-08-12T06:09:31.073Z,100386.63
2022-08-12T06:12:05.695Z,100383.84
2022-08-12T06:14:37.792Z,100396.44
2022-08-12T06:17:08.873Z,100399.13
2022-08-12T06:20:26.731Z,100391.72
2022-08-12T06:22:27.791Z,100397.53
2022-08-12T06:24:56.048Z,100404.84
2022-08-12T06:27:24.940Z,100397.38
2022-08-12T06:30:09.013Z,100404.59
2022-08-12T06:32:51.710Z,100394.00
2022-08-12T06:35:48.867Z,100392.78
2022-08-12T06:38:27.164Z,100390.31
2022-08-12T06:41:14.844Z,100402.91
2022-08-12T06:44:06.574Z,100395.22
2022-08-12T06:46:32.964Z,100391.06
2022-08-12T06:49:01.794Z,100395.44
2022-08-12T06:51:34.758Z,100400.38
2022-08-12T06:54:05.155Z,100394.25
2022-08-12T06:57:02.435Z,100385.28
2022-08-12T06:59:23.623Z,100401.56
2022-08-12T07:01:52.575Z,100390.53
2022-08-12T07:04:39.067Z,100395.88
2022-08-12T07:07:09.568Z,100398.00
2022-08-12T07:10:06.908Z,100400.28
2022-08-12T07:12:33.034Z,100402.56
2022-08-12T07:15:02.422Z,100399.97
2022-08-12T07:17:38.023Z,100403.09
2022-08-12T07:20:20.249Z,100403.22
2022-08-12T07:23:01.014Z,100397.56
2022-08-12T07:25:40.323Z,100404.03
2022-08-12T07:28:16.033Z,100406.13
2022-08-12T07:30:48.401Z,100397.56
2022-08-12T07:33:17.921Z,100401.56
2022-08-12T07:35:48.046Z,100412.28
2022-08-12T07:38:29.120Z,100410.72
2022-08-12T07:41:04.094Z,100407.88
2022-08-12T07:43:33.795Z,100414.22
2022-08-12T07:46:05.381Z,100411.75
2022-08-12T07:48:37.987Z,100398.19
2022-08-12T07:51:06.811Z,100404.38
2022-08-12T07:53:49.128Z,100404.38
2022-08-12T07:56:25.531Z,100404.38
2022-08-12T07:58:54.071Z,100402.84
2022-08-12T08:01:23.869Z,100404.97
2022-08-12T08:04:15.111Z,100408.41
2022-08-12T08:06:46.124Z,100394.19
2022-08-12T08:09:19.544Z,100401.22
2022-08-12T08:12:06.873Z,100400.97
2022-08-12T08:14:35.374Z,100397.13
2022-08-12T08:17:06.568Z,100403.66
2022-08-12T08:20:03.206Z,100397.88
2022-08-12T08:22:32.101Z,100402.34
2022-08-12T08:25:34.844Z,100401.91
2022-08-12T08:28:02.766Z,100397.28
2022-08-12T08:30:32.338Z,100387.22
2022-08-12T08:33:00.763Z,100394.31
2022-08-12T08:35:46.270Z,100396.47
2022-08-12T08:38:32.475Z,100396.69
2022-08-12T08:42:15.318Z,100403.31
2022-08-12T08:44:12.552Z,100386.97
2022-08-12T08:46:40.887Z,100398.69
2022-08-12T08:49:09.153Z,100385.13
2022-08-12T08:51:38.626Z,100396.03
2022-08-12T08:54:08.969Z,100384.19
2022-08-12T08:56:44.095Z,100384.19
2022-08-12T08:59:14.667Z,100378.06
2022-08-12T09:01:44.197Z,100365.28
2022-08-12T09:05:13.567Z,100369.84
2022-08-12T09:07:17.897Z,100365.00
2022-08-12T09:10:03.739Z,100358.72
2022-08-12T09:12:54.643Z,100357.91
2022-08-12T09:15:35.604Z,100353.41
2022-08-12T09:18:05.977Z,100363.75
2022-08-12T09:20:39.152Z,100357.19
2022-08-12T09:23:59.028Z,100350.09
2022-08-12T09:26:04.511Z,100358.09
2022-08-12T09:28:37.765Z,100361.59
2022-08-12T09:32:03.568Z,100354.25
2022-08-12T09:34:29.835Z,100346.13
2022-08-12T09:36:58.008Z,100347.06
2022-08-12T09:40:06.285Z,100336.03
2022-08-12T09:42:43.544Z,100337.09
2022-08-12T09:45:24.671Z,100347.06
2022-08-12T09:48:20.148Z,100335.16
2022-08-12T09:50:55.302Z,100334.25
2022-08-12T09:53:29.510Z,100338.47
2022-08-12T09:56:57.995Z,100333.22
2022-08-12T09:59:01.441Z,100331.00
2022-08-12T10:01:35.324Z,100326.97
2022-08-12T10:04:20.867Z,100322.94
2022-08-12T10:06:54.729Z,100313.69
2022-08-12T10:09:28.959Z,100315.47
2022-08-12T10:12:33.072Z,100302.94
2022-08-12T10:15:01.847Z,100304.78
2022-08-12T10:17:30.375Z,100304.66
2022-08-12T10:20:01.577Z,100299.50
2022-08-12T10:22:39.475Z,100289.91
2022-08-12T10:26:34.883Z,100295.13
2022-08-12T10:28:32.503Z,100286.72
2022-08-12T10:31:01.237Z,100293.06
2022-08-12T10:33:32.247Z,100295.34
2022-08-12T10:36:05.173Z,100274.88
2022-08-12T10:38:41.335Z,100288.97
2022-08-12T10:41:57.145Z,100286.44
2022-08-12T10:44:21.392Z,100294.75
2022-08-12T10:46:52.815Z,100291.41
2022-08-12T10:50:03.519Z,100281.09
2022-08-12T10:52:33.881Z,100279.72
2022-08-12T10:55:00.542Z,100262.00
2022-08-12T10:58:12.573Z,100267.75
2022-08-12T11:00:31.982Z,100258.13
2022-08-12T11:04:24.246Z,100268.63
2022-08-12T11:07:09.832Z,100243.00
2022-08-12T11:08:46.175Z,100260.56
2022-08-12T11:12:07.794Z,100259.47
2022-08-12T11:14:09.124Z,100249.09
2022-08-12T11:17:33.679Z,100246.28
2022-08-12T11:19:49.401Z,100252.63
2022-08-12T11:22:23.983Z,100225.22
2022-08-12T11:24:55.269Z,100244.53
2022-08-12T11:27:23.901Z,100246.94
2022-08-12T11:30:03.737Z,100240.81
2022-08-12T11:32:39.084Z,100244.06
2022-08-12T11:35:09.173Z,100244.59
2022-08-12T11:37:58.108Z,100234.72
2022-08-12T11:40:29.789Z,100238.25
2022-08-12T11:43:18.912Z,100245.84
2022-08-12T11:45:53.100Z,100237.19
2022-08-12T11:48:27.183Z,100235.53
2022-08-12T11:50:56.129Z,100232.13
2022-08-12T11:53:59.519Z,100232.38
2022-08-12T11:56:13.668Z,100218.94
2022-08-12T12:01:59.080Z,100216.50
2022-08-12T12:04:29.096Z,100219.75
2022-08-12T12:07:07.312Z,100215.13
2022-08-12T12:09:51.819Z,100212.88
2022-08-12T12:12:25.354Z,100210.19
2022-08-12T12:14:54.641Z,100217.72
2022-08-12T12:17:24.411Z,100217.19
2022-08-12T12:19:53.274Z,100212.31
2022-08-12T12:22:23.699Z,100211.25
2022-08-12T12:24:59.339Z,100197.00
2022-08-12T12:28:03.882Z,100191.22
2022-08-12T12:30:33.667Z,100186.72
2022-08-12T12:33:02.182Z,100182.97
2022-08-12T12:36:18.298Z,100190.09
2022-08-12T12:38:20.100Z,100180.91
2022-08-12T12:40:53.416Z,100191.94
2022-08-12T12:43:28.473Z,100193.56
2022-08-12T12:46:05.440Z,100187.59
2022-08-12T12:48:33.983Z,100172.66
2022-08-12T12:51:49.185Z,100173.94
2022-08-12T12:54:09.679Z,100165.97
2022-08-12T12:56:42.278Z,100168.78
2022-08-12T12:59:55.512Z,100165.78
2022-08-12T13:02:08.179Z,100159.66
2022-08-12T13:04:38.240Z,100149.41
2022-08-12T13:07:07.084Z,100162.97
2022-08-12T13:09:36.121Z,100144.91
2022-08-12T13:12:10.946Z,100148.25
2022-08-12T13:14:40.457Z,100147.34
2022-08-12T13:17:14.568Z,100152.56
2022-08-12T13:19:46.611Z,100157.44
2022-08-12T13:22:20.041Z,100146.91
2022-08-12T13:24:51.911Z,100148.13
2022-08-12T13:27:23.113Z,100152.34
2022-08-12T13:30:03.626Z,100151.34
2022-08-12T13:32:32.072Z,100145.03
2022-08-12T13:35:04.716Z,100137.34
2022-08-12T13:37:55.155Z,100135.84
2022-08-12T13:40:24.881Z,100125.00
2022-08-12T13:42:57.607Z,100133.59
2022-08-12T13:45:29.100Z,100137.41
2022-08-12T13:47:59.948Z,100130.19
2022-08-12T13:50:32.585Z,100138.13
2022-08-12T13:53:06.274Z,100126.06
2022-08-12T13:55:59.740Z,100100.09
2022-08-12T13:58:32.934Z,100113.06
2022-08-12T14:01:06.139Z,100105.44
2022-08-12T14:03:50.916Z,100102.06
2022-08-12T14:06:20.824Z,100107.75
2022-08-12T14:08:50.578Z,100113.38
2022-08-12T14:11:25.140Z,100123.44
2022-08-12T14:14:03.829Z,100130.81
2022-08-12T14:16:49.411Z,100122.31
2022-08-12T14:19:24.398Z,100104.44
2022-08-12T14:22:00.793Z,100094.72
2022-08-12T14:24:40.560Z,100107.72
2022-08-12T14:27:11.269Z,100116.91
2022-08-12T14:30:04.483Z,100102.72
2022-08-12T14:32:34.947Z,100102.72
2022-08-12T14:35:08.966Z,100095.84
2022-08-12T14:37:56.236Z,100099.09
2022-08-12T14:40:29.210Z,100094.63
2022-08-12T14:42:58.338Z,100091.78
2022-08-12T14:45:45.424Z,100087.06
2022-08-12T14:48:18.875Z,100085.03
2022-08-12T14:52:10.475Z,100091.81
2022-08-12T14:54:55.858Z,100091.72
2022-08-12T14:59:57.420Z,100089.16
2022-08-12T15:02:21.227Z,100092.84
2022-08-12T15:04:55.940Z,100077.59
2022-08-12T15:07:33.426Z,100083.16
2022-08-12T15:10:13.551Z,100088.13
2022-08-12T15:12:41.624Z,100085.19
2022-08-12T15:15:11.276Z,100092.38
2022-08-12T15:17:39.848Z,100089.41
2022-08-12T15:20:32.918Z,100076.91
2022-08-12T15:22:59.897Z,100069.66
2022-08-12T15:25:28.726Z,100073.69
2022-08-12T15:28:04.392Z,100085.72
2022-08-12T15:30:37.061Z,100077.09
2022-08-12T15:33:12.743Z,100074.34
2022-08-12T15:35:50.279Z,100070.25
2022-08-12T15:38:24.664Z,100051.63
2022-08-12T15:40:53.916Z,100055.06
2022-08-12T15:43:52.135Z,100060.50
2022-08-12T15:46:15.170Z,100050.13
2022-08-12T15:48:46.692Z,100058.16
2022-08-12T15:51:57.314Z,100053.69
2022-08-12T15:54:33.914Z,100053.22
2022-08-12T15:57:08.154Z,100070.84
2022-08-12T16:00:03.801Z,100080.09
2022-08-12T16:02:29.466Z,100083.97
2022-08-12T16:04:59.032Z,100072.44
2022-08-12T16:07:30.967Z,100062.97
2022-08-12T16:10:05.886Z,100063.56
2022-08-12T16:12:39.634Z,100057.75
2022-08-12T16:15:08.745Z,100065.16
2022-08-12T16:18:09.064Z,100049.03
2022-08-12T16:20:33.204Z,100054.06
2022-08-12T16:23:36.372Z,100057.06
2022-08-12T16:26:06.331Z,100060.94
2022-08-12T16:28:43.942Z,100027.94
2022-08-12T16:31:22.656Z,100053.28
2022-08-12T16:33:58.818Z,100046.75
2022-08-12T16:36:30.146Z,100050.00
2022-08-12T16:39:02.758Z,100048.34
2022-08-12T16:41:37.813Z,100031.38
2022-08-12T16:44:08.368Z,100046.59
2022-08-12T16:46:37.590Z,100048.56
2022-08-12T16:49:09.086Z,100044.56
2022-08-12T16:51:46.729Z,100040.16
2022-08-12T16:54:18.592Z,100036.75
2022-08-12T16:56:54.640Z,100040.97
2022-08-12T16:59:52.972Z,100030.34
2022-08-12T17:02:18.019Z,100036.25
2022-08-12T17:05:04.254Z,100045.81
2022-08-12T17:07:36.671Z,100035.66
2022-08-12T17:10:09.364Z,100023.88
2022-08-12T17:12:40.954Z,100027.75
2022-08-12T17:15:41.310Z,100034.44
2022-08-12T17:18:42.483Z,100030.38
2022-08-12T17:20:49.510Z,100036.94
2022-08-12T17:23:19.620Z,100035.56
2022-08-12T17:25:53.397Z,100037.97
2022-08-12T17:28:22.557Z,100036.94
2022-08-12T17:30:59.566Z,100034.16
2022-08-12T17:33:33.553Z,100041.78
2022-08-12T17:36:05.884Z,100032.94
2022-08-12T17:38:35.924Z,100033.59
2022-08-12T17:41:23.174Z,100030.38
2022-08-12T17:43:58.909Z,100025.94
2022-08-12T17:46:33.119Z,100030.56
2022-08-12T17:49:18.952Z,100028.44
2022-08-12T17:52:02.925Z,100031.53
2022-08-12T17:54:32.724Z,100041.91
2022-08-12T17:57:16.029Z,100040.59
2022-08-12T17:59:48.741Z,100041.16
2022-08-12T18:02:29.944Z,100043.78
2022-08-12T18:05:04.789Z,100037.38
2022-08-12T18:07:39.503Z,100047.56
2022-08-12T18:10:08.722Z,100044.81
2022-08-12T18:12:38.746Z,100045.06
2022-08-12T18:15:11.674Z,100041.44
2022-08-12T18:17:59.303Z,100050.28
2022-08-12T18:20:29.766Z,100050.41
2022-08-12T18:23:01.208Z,100048.88
2022-08-12T18:26:14.281Z,100050.59
2022-08-12T18:28:43.066Z,100051.50
2022-08-12T18:31:13.748Z,100045.91
2022-08-12T18:33:44.139Z,100045.63
2022-08-12T18:36:22.437Z,100049.75
2022-08-12T18:38:56.102Z,100050.47
2022-08-12T18:41:34.220Z,100050.50
2022-08-12T18:44:09.771Z,100051.53
2022-08-12T18:46:54.270Z,100054.69
2022-08-12T18:49:39.112Z,100057.44
2022-08-12T18:52:11.877Z,100050.72
2022-08-12T18:54:48.955Z,100054.78
2022-08-12T18:58:06.858Z,100060.75
2022-08-12T19:00:21.494Z,100062.81
2022-08-12T19:02:51.992Z,100063.63
2022-08-12T19:05:53.114Z,100058.84
2022-08-12T19:08:13.991Z,100064.31
2022-08-12T19:10:50.431Z,100063.84
2022-08-12T19:13:39.020Z,100060.69
2022-08-12T19:16:11.386Z,100068.00
2022-08-12T19:18:44.502Z,100072.22
2022-08-12T19:21:15.949Z,100072.78
2022-08-12T19:24:05.936Z,100074.19
2022-08-12T19:26:34.935Z,100069.66
2022-08-12T19:29:05.198Z,100066.69
2022-08-12T19:32:03.648Z,100073.63
2022-08-12T19:37:38.562Z,100075.53
2022-08-12T19:40:30.771Z,100073.03
2022-08-12T19:43:02.275Z,100075.19
2022-08-12T19:45:48.893Z,100077.97
2022-08-12T19:48:19.327Z,100077.22
2022-08-12T19:50:52.288Z,100075.44
2022-08-12T19:53:22.745Z,100064.28
2022-08-12T19:55:53.491Z,100073.75
2022-08-12T19:58:23.265Z,100074.63
2022-08-12T20:00:54.424Z,100074.75
2022-08-12T20:03:40.082Z,100074.22
2022-08-12T20:06:21.689Z,100075.84
2022-08-12T20:08:56.675Z,100076.69
2022-08-12T20:12:09.854Z,100075.66
2022-08-12T20:14:17.732Z,100087.53
2022-08-12T20:16:52.020Z,100091.03
2022-08-12T20:19:52.413Z,100091.75
2022-08-12T20:22:23.964Z,100095.59
2022-08-12T20:24:55.275Z,100091.72
2022-08-12T20:27:29.248Z,100089.41
2022-08-12T20:30:14.959Z,100091.88
2022-08-12T20:32:54.244Z,100095.81
2022-08-12T20:35:24.679Z,100097.81
2022-08-12T20:38:07.404Z,100097.88
2022-08-12T20:40:48.034Z,100098.81
2022-08-12T20:43:19.170Z,100104.19
2022-08-12T20:45:57.613Z,100098.06
2022-08-12T20:48:29.444Z,100103.63
2022-08-12T20:51:04.328Z,100105.13
2022-08-12T20:53:58.324Z,100097.88
2022-08-12T20:56:30.848Z,100097.22
2022-08-12T20:59:01.536Z,100102.56
2022-08-12T21:01:46.925Z,100103.56
2022-08-12T21:04:35.224Z,100103.91
2022-08-12T21:07:09.371Z,100110.22
2022-08-12T21:09:42.440Z,100105.16
2022-08-12T21:12:37.508Z,100110.63
2022-08-12T21:15:23.079Z,100106.47
2022-08-12T21:18:09.000Z,100101.25
2022-08-12T21:20:50.186Z,100109.66
2022-08-12T21:23:21.443Z,100107.66
2022-08-12T21:25:52.562Z,100105.41
2022-08-12T21:28:27.657Z,100113.34
2022-08-12T21:32:35.472Z,100120.28
2022-08-12T21:34:07.886Z,100114.50
2022-08-12T21:36:43.304Z,100121.75
2022-08-12T21:39:21.350Z,100117.00
2022-08-12T21:41:52.938Z,100117.78
2022-08-12T21:44:24.472Z,100114.84
2022-08-12T21:47:21.125Z,100120.47
2022-08-12T21:50:02.246Z,100118.97
2022-08-12T21:52:36.486Z,100117.97
2022-08-12T21:55:08.453Z,100117.16
2022-08-12T21:57:53.275Z,100120.81
2022-08-12T22:00:35.185Z,100129.72
2022-08-12T22:04:01.394Z,100127.56
2022-08-12T22:06:31.286Z,100140.13
2022-08-12T22:09:15.804Z,100132.22
2022-08-12T22:11:57.006Z,100138.47
2022-08-12T22:14:30.200Z,100133.03
2022-08-12T22:17:01.279Z,100130.91
2022-08-12T22:19:34.892Z,100137.81
2022-08-12T22:22:05.169Z,100137.47
2022-08-12T22:24:33.899Z,100137.81
2022-08-12T22:27:07.938Z,100137.81
2022-08-12T22:30:11.224Z,100139.25
2022-08-12T22:32:50.162Z,100138.41
2022-08-12T22:35:55.783Z,100140.75
2022-08-12T22:38:25.363Z,100142.88
2022-08-12T22:40:55.052Z,100143.38
2022-08-12T22:43:58.810Z,100139.44
2022-08-12T22:46:52.761Z,100142.88
2022-08-12T22:49:37.390Z,100137.75
2022-08-12T22:52:12.263Z,100133.28
2022-08-12T22:54:59.911Z,100141.06
2022-08-12T22:57:49.286Z,100139.03
2022-08-12T23:00:27.213Z,100145.97
2022-08-12T23:03:03.008Z,100139.69
2022-08-12T23:05:56.550Z,100143.81
2022-08-12T23:08:22.601Z,100138.34
2022-08-12T23:10:53.520Z,100138.81
2022-08-12T23:13:43.750Z,100142.13
2022-08-12T23:16:28.152Z,100133.22
2022-08-12T23:19:11.035Z,100134.56
2022-08-12T23:22:04.870Z,100134.72
2022-08-12T23:24:55.869Z,100132.75
2022-08-12T23:27:51.703Z,100136.38
2022-08-12T23:30:32.230Z,100138.19
2022-08-12T23:33:13.522Z,100138.66
2022-08-12T23:35:58.953Z,100134.53
2022-08-12T23:38:32.668Z,100131.88
2022-08-12T23:41:02.406Z,100130.56
2022-08-12T23:43:39.008Z,100127.16
2022-08-12T23:46:10.996Z,100130.06
2022-08-12T23:48:40.964Z,100135.00
2022-08-12T23:51:22.749Z,100136.22
2022-08-12T23:54:00.104Z,100139.03
2022-08-12T23:56:29.304Z,100142.31
2022-08-12T23:58:58.675Z,100143.16
